createdAt,value
2018-12-09T00:01:09.775Z,3.60
2018-12-09T00:03:38.388Z,3.30
2018-12-09T00:06:05.897Z,3.92
2018-12-09T00:08:33.851Z,2.40
2018-12-09T00:11:01.310Z,2.72
2018-12-09T00:13:29.058Z,3.15
2018-12-09T00:15:56.549Z,3.17
2018-12-09T00:18:25.233Z,2.98
2018-12-09T00:20:54.043Z,4.55
2018-12-09T00:23:21.667Z,4.28
2018-12-09T00:25:49.144Z,3.20
2018-12-09T00:28:16.724Z,4.25
2018-12-09T00:30:44.369Z,2.75
2018-12-09T00:33:12.126Z,3.85
2018-12-09T00:35:39.716Z,4.53
2018-12-09T00:38:07.438Z,3.60
2018-12-09T00:40:35.068Z,3.50
2018-12-09T00:43:02.527Z,3.67
2018-12-09T00:45:29.964Z,4.00
2018-12-09T00:47:57.427Z,4.42
2018-12-09T00:50:24.867Z,4.62
2018-12-09T00:52:52.340Z,5.22
2018-12-09T00:55:19.843Z,3.92
2018-12-09T00:57:47.300Z,3.62
2018-12-09T01:00:14.814Z,3.70
2018-12-09T01:02:43.022Z,4.45
2018-12-09T01:05:10.581Z,4.65
2018-12-09T01:07:38.168Z,4.45
2018-12-09T01:10:05.939Z,4.30
2018-12-09T01:12:33.387Z,3.27
2018-12-09T01:15:00.835Z,5.87
2018-12-09T01:17:28.720Z,4.58
2018-12-09T01:19:56.214Z,4.08
2018-12-09T01:22:23.675Z,4.00
2018-12-09T01:24:51.190Z,6.40
2018-12-09T01:27:19.065Z,5.17
2018-12-09T01:29:46.919Z,4.75
2018-12-09T01:32:14.870Z,6.35
2018-12-09T01:34:42.319Z,4.10
2018-12-09T01:37:09.767Z,4.03
2018-12-09T01:39:37.210Z,5.70
2018-12-09T01:42:04.866Z,5.03
2018-12-09T01:44:32.334Z,7.67
2018-12-09T01:46:59.762Z,6.40
2018-12-09T01:49:27.376Z,5.40
2018-12-09T01:51:54.874Z,4.40
2018-12-09T01:54:22.319Z,5.65
2018-12-09T01:56:49.867Z,5.87
2018-12-09T01:59:17.400Z,4.33
2018-12-09T02:01:44.846Z,5.70
2018-12-09T02:04:12.392Z,4.85
2018-12-09T02:06:39.842Z,4.92
2018-12-09T02:09:07.643Z,4.03
2018-12-09T02:11:35.096Z,4.33
2018-12-09T02:14:02.659Z,3.37
2018-12-09T02:16:30.495Z,8.45
2018-12-09T02:19:20.547Z,5.65
2018-12-09T02:21:48.137Z,4.53
2018-12-09T02:24:15.941Z,4.17
2018-12-09T02:26:43.367Z,4.53
2018-12-09T02:29:10.983Z,3.85
2018-12-09T02:31:38.481Z,3.47
2018-12-09T02:34:06.018Z,4.22
2018-12-09T02:36:33.953Z,3.90
2018-12-09T02:39:01.518Z,5.83
2018-12-09T02:41:29.012Z,5.03
2018-12-09T02:43:56.468Z,4.40
2018-12-09T02:46:23.968Z,4.53
2018-12-09T02:48:51.716Z,6.03
2018-12-09T02:51:19.257Z,3.62
2018-12-09T02:53:46.878Z,2.95
2018-12-09T02:56:14.503Z,4.05
2018-12-09T02:58:42.489Z,7.40
2018-12-09T03:01:09.936Z,4.85
2018-12-09T03:03:37.443Z,4.42
2018-12-09T03:06:04.954Z,4.80
2018-12-09T03:08:32.405Z,3.72
2018-12-09T03:11:00.030Z,4.10
2018-12-09T03:13:27.625Z,2.90
2018-12-09T03:15:55.263Z,3.58
2018-12-09T03:18:22.720Z,3.62
2018-12-09T03:20:50.824Z,3.70
2018-12-09T03:23:18.379Z,4.70
2018-12-09T03:25:45.818Z,6.47
2018-12-09T03:28:13.271Z,4.60
2018-12-09T03:30:40.735Z,4.40
2018-12-09T03:33:08.184Z,3.62
2018-12-09T03:35:35.716Z,3.70
2018-12-09T03:38:03.166Z,3.70
2018-12-09T03:40:30.603Z,2.47
2018-12-09T03:42:58.075Z,2.98
2018-12-09T03:45:25.520Z,3.33
2018-12-09T03:47:52.953Z,2.70
2018-12-09T03:50:20.613Z,3.35
2018-12-09T03:52:48.045Z,2.22
2018-12-09T03:55:15.567Z,1.62
2018-12-09T03:57:43.002Z,1.80
2018-12-09T04:00:10.520Z,1.87
2018-12-09T04:02:38.015Z,1.47
2018-12-09T04:05:05.599Z,2.15
2018-12-09T04:07:33.031Z,2.75
2018-12-09T04:10:01.241Z,2.75
2018-12-09T04:12:28.791Z,2.37
2018-12-09T04:14:56.237Z,2.58
2018-12-09T04:17:23.784Z,2.12
2018-12-09T04:19:51.235Z,2.15
2018-12-09T04:22:18.726Z,2.12
2018-12-09T04:24:46.262Z,2.33
2018-12-09T04:27:13.699Z,2.33
2018-12-09T04:29:41.195Z,3.00
2018-12-09T04:32:09.147Z,3.70
2018-12-09T04:34:36.638Z,2.72
2018-12-09T04:37:04.086Z,3.22
2018-12-09T04:39:31.585Z,1.95
2018-12-09T04:41:59.038Z,2.75
2018-12-09T04:44:26.462Z,1.57
2018-12-09T04:46:53.918Z,2.87
2018-12-09T04:49:21.361Z,3.85
2018-12-09T04:51:54.370Z,5.12
2018-12-09T04:54:21.870Z,3.45
2018-12-09T04:56:49.314Z,2.33
2018-12-09T04:59:19.170Z,3.10
2018-12-09T05:01:46.943Z,3.67
2018-12-09T05:04:14.962Z,3.10
2018-12-09T05:06:42.444Z,4.15
2018-12-09T05:09:10.022Z,4.08
2018-12-09T05:11:37.484Z,4.85
2018-12-09T05:14:05.283Z,3.65
2018-12-09T05:16:32.735Z,4.22
2018-12-09T05:19:00.296Z,4.42
2018-12-09T05:21:27.904Z,4.22
2018-12-09T05:23:55.344Z,4.03
2018-12-09T05:26:23.262Z,4.78
2018-12-09T05:28:50.793Z,3.00
2018-12-09T05:31:18.238Z,3.40
2018-12-09T05:33:45.670Z,3.17
2018-12-09T05:36:13.126Z,4.12
2018-12-09T05:38:40.975Z,5.55
2018-12-09T05:41:08.503Z,4.35
2018-12-09T05:43:36.059Z,5.12
2018-12-09T05:46:03.502Z,4.20
2018-12-09T05:48:30.955Z,3.37
2018-12-09T05:50:58.487Z,5.67
2018-12-09T05:53:25.946Z,3.10
2018-12-09T05:55:53.390Z,5.58
2018-12-09T05:58:22.906Z,5.45
2018-12-09T06:00:50.362Z,6.08
2018-12-09T06:03:18.149Z,3.87
2018-12-09T06:05:46.299Z,4.45
2018-12-09T06:08:13.747Z,4.72
2018-12-09T06:10:41.199Z,5.00
2018-12-09T06:13:08.767Z,4.90
2018-12-09T06:15:36.254Z,3.90
2018-12-09T06:18:03.778Z,5.50
2018-12-09T06:20:31.221Z,5.22
2018-12-09T06:22:58.669Z,5.25
2018-12-09T06:25:26.113Z,6.40
2018-12-09T06:27:53.765Z,5.42
2018-12-09T06:30:21.206Z,3.87
2018-12-09T06:32:48.651Z,4.17
2018-12-09T06:35:16.090Z,4.50
2018-12-09T06:37:43.546Z,3.87
2018-12-09T06:40:10.987Z,4.03
2018-12-09T06:42:38.443Z,3.22
2018-12-09T06:45:06.211Z,3.12
2018-12-09T06:47:33.639Z,4.75
2018-12-09T06:50:01.355Z,4.30
2018-12-09T06:52:28.750Z,4.25
2018-12-09T06:54:56.638Z,3.60
2018-12-09T06:57:25.042Z,4.28
2018-12-09T06:59:52.495Z,3.85
2018-12-09T07:02:45.326Z,3.77
2018-12-09T07:05:13.088Z,2.72
2018-12-09T07:07:40.547Z,3.20
2018-12-09T07:10:08.048Z,4.25
2018-12-09T07:12:35.494Z,2.77
2018-12-09T07:15:03.006Z,4.15
2018-12-09T07:17:30.642Z,3.95
2018-12-09T07:19:58.107Z,2.70
2018-12-09T07:22:25.638Z,3.25
2018-12-09T07:24:53.087Z,3.15
2018-12-09T07:27:20.597Z,2.98
2018-12-09T07:29:48.458Z,2.35
2018-12-09T07:32:15.897Z,3.12
2018-12-09T07:34:43.352Z,2.47
2018-12-09T07:37:10.900Z,3.33
2018-12-09T07:39:38.463Z,4.20
2018-12-09T07:42:06.004Z,2.85
2018-12-09T07:44:33.559Z,4.20
2018-12-09T07:47:10.841Z,2.95
2018-12-09T07:49:38.780Z,3.42
2018-12-09T07:52:06.243Z,3.50
2018-12-09T07:54:42.630Z,2.90
2018-12-09T07:57:16.744Z,3.12
2018-12-09T07:59:48.150Z,3.62
2018-12-09T08:02:15.713Z,2.75
2018-12-09T08:04:43.180Z,4.03
2018-12-09T08:07:10.630Z,3.35
2018-12-09T08:09:38.077Z,3.50
2018-12-09T08:12:05.851Z,4.12
2018-12-09T08:14:33.518Z,2.55
2018-12-09T08:17:01.222Z,3.10
2018-12-09T08:19:28.699Z,3.80
2018-12-09T08:21:56.160Z,3.62
2018-12-09T08:24:23.997Z,3.05
2018-12-09T08:26:51.994Z,3.15
2018-12-09T08:29:19.433Z,5.35
2018-12-09T08:31:47.061Z,3.90
2018-12-09T08:34:14.926Z,5.03
2018-12-09T08:36:42.802Z,3.52
2018-12-09T08:39:10.950Z,4.10
2018-12-09T08:41:39.365Z,2.25
2018-12-09T08:44:07.253Z,3.83
2018-12-09T08:46:35.284Z,5.80
2018-12-09T08:49:02.751Z,6.25
2018-12-09T08:51:30.216Z,22.82
2018-12-09T08:53:57.906Z,23.80
2018-12-09T08:56:25.636Z,13.60
2018-12-09T08:58:53.167Z,30.60
2018-12-09T09:01:20.875Z,12.90
2018-12-09T09:03:49.461Z,11.78
2018-12-09T09:06:16.924Z,24.85
2018-12-09T09:08:46.646Z,8.10
2018-12-09T09:11:15.403Z,12.25
2018-12-09T09:13:42.863Z,11.12
2018-12-09T09:16:10.356Z,15.80
2018-12-09T09:18:38.145Z,5.00
2018-12-09T09:21:05.707Z,2.70
2018-12-09T09:23:33.156Z,2.95
2018-12-09T09:26:00.587Z,2.25
2018-12-09T09:28:28.043Z,2.25
2018-12-09T09:30:55.490Z,2.65
2018-12-09T09:33:22.943Z,4.03
2018-12-09T09:35:50.399Z,5.40
2018-12-09T09:38:17.876Z,3.02
2018-12-09T09:40:45.316Z,4.00
2018-12-09T09:43:12.857Z,3.87
2018-12-09T09:45:40.298Z,2.72
2018-12-09T09:48:07.814Z,2.85
2018-12-09T09:50:35.274Z,4.78
2018-12-09T09:53:02.729Z,4.50
2018-12-09T09:55:30.175Z,3.70
2018-12-09T09:57:58.075Z,4.37
2018-12-09T10:00:25.522Z,3.47
2018-12-09T10:02:52.975Z,4.12
2018-12-09T10:05:21.239Z,3.25
2018-12-09T10:07:49.253Z,5.62
2018-12-09T10:10:18.453Z,5.10
2018-12-09T10:12:46.221Z,3.87
2018-12-09T10:15:14.377Z,7.15
2018-12-09T10:17:42.462Z,5.67
2018-12-09T10:20:10.608Z,4.42
2018-12-09T10:22:39.939Z,3.83
2018-12-09T10:25:07.446Z,3.37
2018-12-09T10:27:35.431Z,6.78
2018-12-09T10:30:03.557Z,5.20
2018-12-09T10:32:31.207Z,4.85
2018-12-09T10:34:58.846Z,6.12
2018-12-09T10:37:27.611Z,7.12
2018-12-09T10:39:55.751Z,3.00
2018-12-09T10:42:23.925Z,5.08
2018-12-09T10:44:51.413Z,5.90
2018-12-09T10:47:18.954Z,3.10
2018-12-09T10:49:46.475Z,7.05
2018-12-09T10:52:13.963Z,3.75
2018-12-09T10:54:41.430Z,3.60
2018-12-09T10:57:09.456Z,5.60
2018-12-09T10:59:36.966Z,2.55
2018-12-09T11:02:10.124Z,2.90
2018-12-09T11:04:37.811Z,2.02
2018-12-09T11:07:05.294Z,1.75
2018-12-09T11:09:32.768Z,1.92
2018-12-09T11:12:00.537Z,2.30
2018-12-09T11:14:28.019Z,3.15
2018-12-09T11:16:55.454Z,2.33
2018-12-09T11:19:22.915Z,1.60
2018-12-09T11:21:51.200Z,2.00
2018-12-09T11:24:18.644Z,1.95
2018-12-09T11:26:46.080Z,1.27
2018-12-09T11:29:13.534Z,1.45
2018-12-09T11:31:40.974Z,1.10
2018-12-09T11:34:08.435Z,1.45
2018-12-09T11:36:35.901Z,1.00
2018-12-09T11:39:04.663Z,1.25
2018-12-09T11:41:32.506Z,1.15
2018-12-09T11:43:59.965Z,1.02
2018-12-09T11:46:27.409Z,0.60
2018-12-09T11:48:54.847Z,1.32
2018-12-09T11:51:23.007Z,0.90
2018-12-09T11:53:50.459Z,1.35
2018-12-09T11:56:17.915Z,1.57
2018-12-09T11:58:45.353Z,0.95
2018-12-09T12:01:12.829Z,0.95
2018-12-09T12:03:40.328Z,1.20
2018-12-09T12:06:08.425Z,5.42
2018-12-09T12:08:35.926Z,2.72
2018-12-09T12:11:03.403Z,3.75
2018-12-09T12:13:30.895Z,18.55
2018-12-09T12:15:58.359Z,16.25
2018-12-09T12:18:25.818Z,14.63
2018-12-09T12:20:53.342Z,3.95
2018-12-09T12:23:20.794Z,8.10
2018-12-09T12:25:48.251Z,2.20
2018-12-09T12:28:16.252Z,5.53
2018-12-09T12:30:43.702Z,4.53
2018-12-09T12:33:11.682Z,4.10
2018-12-09T12:35:39.147Z,4.45
2018-12-09T12:38:06.596Z,5.78
2018-12-09T12:40:34.067Z,3.35
2018-12-09T12:43:01.588Z,3.80
2018-12-09T12:45:29.135Z,5.70
2018-12-09T12:47:56.704Z,5.08
2018-12-09T12:50:24.207Z,5.55
2018-12-09T12:52:51.780Z,3.45
2018-12-09T12:55:19.218Z,2.83
2018-12-09T12:57:46.709Z,3.80
2018-12-09T13:00:14.883Z,4.97
2018-12-09T13:02:42.449Z,6.35
2018-12-09T13:05:09.895Z,3.08
2018-12-09T13:07:37.425Z,1.20
2018-12-09T13:10:05.906Z,1.00
2018-12-09T13:12:33.357Z,1.00
2018-12-09T13:15:00.789Z,1.17
2018-12-09T13:17:28.282Z,0.95
2018-12-09T13:19:55.719Z,0.93
2018-12-09T13:22:23.257Z,1.87
2018-12-09T13:24:50.752Z,1.57
2018-12-09T13:27:18.203Z,1.70
2018-12-09T13:29:45.706Z,1.80
2018-12-09T13:32:13.147Z,1.40
2018-12-09T13:34:40.682Z,1.60
2018-12-09T13:37:08.193Z,2.15
2018-12-09T13:39:35.699Z,1.80
2018-12-09T13:42:03.198Z,1.50
2018-12-09T13:44:30.650Z,1.72
2018-12-09T13:46:58.074Z,2.85
2018-12-09T13:49:25.527Z,1.82
2018-12-09T13:51:53.050Z,1.92
2018-12-09T13:54:20.518Z,1.30
2018-12-09T13:56:48.029Z,1.52
2018-12-09T13:59:15.520Z,1.20
2018-12-09T14:01:42.957Z,1.12
2018-12-09T14:04:10.617Z,1.45
2018-12-09T14:06:38.190Z,1.70
2018-12-09T14:09:06.059Z,1.37
2018-12-09T14:11:33.531Z,2.20
2018-12-09T14:14:01.011Z,1.37
2018-12-09T14:16:28.459Z,1.60
2018-12-09T14:18:55.896Z,1.60
2018-12-09T14:21:23.348Z,1.95
2018-12-09T14:23:50.788Z,1.37
2018-12-09T14:26:18.235Z,1.90
2018-12-09T14:28:45.838Z,1.67
2018-12-09T14:31:13.339Z,1.90
2018-12-09T14:33:40.775Z,1.67
2018-12-09T14:36:08.214Z,1.40
2018-12-09T14:38:35.655Z,1.70
2018-12-09T14:41:03.111Z,2.95
2018-12-09T14:43:30.543Z,2.10
2018-12-09T14:45:58.071Z,1.57
2018-12-09T14:48:25.522Z,1.67
2018-12-09T14:50:53.016Z,2.15
2018-12-09T14:53:20.453Z,1.82
2018-12-09T14:55:47.987Z,2.00
2018-12-09T14:58:15.407Z,1.92
2018-12-09T15:00:42.879Z,2.67
2018-12-09T15:03:10.307Z,3.00
2018-12-09T15:05:37.774Z,2.95
2018-12-09T15:08:05.208Z,2.85
2018-12-09T15:10:32.652Z,3.25
2018-12-09T15:13:00.095Z,2.60
2018-12-09T15:15:28.173Z,2.45
2018-12-09T15:17:55.632Z,2.42
2018-12-09T15:20:23.071Z,2.40
2018-12-09T15:22:50.526Z,2.92
2018-12-09T15:25:17.964Z,3.50
2018-12-09T15:27:45.444Z,2.80
2018-12-09T15:30:12.923Z,2.62
2018-12-09T15:32:40.383Z,2.62
2018-12-09T15:35:07.822Z,2.92
2018-12-09T15:37:35.286Z,2.30
2018-12-09T15:40:02.859Z,3.08
2018-12-09T15:42:30.406Z,2.70
2018-12-09T15:44:57.857Z,2.05
2018-12-09T15:47:25.312Z,2.15
2018-12-09T15:49:52.751Z,3.40
2018-12-09T15:52:23.157Z,1.82
2018-12-09T15:54:51.399Z,3.65
2018-12-09T15:57:18.892Z,2.98
2018-12-09T15:59:46.380Z,1.92
2018-12-09T16:02:15.480Z,2.30
2018-12-09T16:04:43.125Z,2.40
2018-12-09T16:07:10.774Z,2.92
2018-12-09T16:09:38.423Z,2.85
2018-12-09T16:12:06.259Z,2.50
2018-12-09T16:14:36.564Z,1.92
2018-12-09T16:17:04.013Z,1.85
2018-12-09T16:19:31.430Z,2.00
2018-12-09T16:21:58.874Z,2.70
2018-12-09T16:24:26.906Z,1.55
2018-12-09T16:26:54.353Z,1.70
2018-12-09T16:29:21.795Z,2.37
2018-12-09T16:31:49.256Z,2.65
2018-12-09T16:34:17.382Z,2.15
2018-12-09T16:36:46.103Z,2.00
2018-12-09T16:39:13.586Z,2.60
2018-12-09T16:41:41.026Z,2.98
2018-12-09T16:44:08.539Z,2.75
2018-12-09T16:46:37.776Z,2.00
2018-12-09T16:49:05.286Z,3.30
2018-12-09T16:51:34.484Z,2.75
2018-12-09T16:54:02.167Z,2.35
2018-12-09T16:56:29.662Z,3.02
2018-12-09T16:58:57.151Z,2.27
2018-12-09T17:01:24.578Z,3.17
2018-12-09T17:03:55.089Z,3.35
2018-12-09T17:06:22.831Z,4.95
2018-12-09T17:08:50.736Z,4.60
2018-12-09T17:11:18.426Z,5.20
2018-12-09T17:13:45.900Z,4.17
2018-12-09T17:16:13.433Z,10.23
2018-12-09T17:18:41.899Z,8.58
2018-12-09T17:21:09.551Z,5.67
2018-12-09T17:23:37.008Z,5.55
2018-12-09T17:26:04.446Z,6.65
2018-12-09T17:28:31.909Z,9.95
2018-12-09T17:30:59.351Z,8.28
2018-12-09T17:33:26.894Z,7.33
2018-12-09T17:35:54.344Z,4.17
2018-12-09T17:38:21.791Z,8.00
2018-12-09T17:40:49.966Z,5.08
2018-12-09T17:45:55.899Z,3.50
2018-12-09T17:48:23.329Z,4.80
2018-12-09T17:50:51.690Z,5.83
2018-12-09T17:53:19.130Z,7.75
2018-12-09T17:55:46.604Z,4.22
2018-12-09T17:58:14.842Z,5.60
2018-12-09T18:00:42.922Z,3.33
2018-12-09T18:03:10.444Z,4.40
2018-12-09T18:05:38.139Z,4.00
2018-12-09T18:08:06.438Z,2.52
2018-12-09T18:10:35.446Z,8.75
2018-12-09T18:13:02.888Z,3.80
2018-12-09T18:15:30.343Z,3.77
2018-12-09T18:17:57.782Z,4.37
2018-12-09T18:20:25.265Z,4.42
2018-12-09T18:22:52.700Z,4.50
2018-12-09T18:25:20.134Z,6.85
2018-12-09T18:27:47.960Z,4.40
2018-12-09T18:30:15.399Z,4.30
2018-12-09T18:32:42.898Z,3.90
2018-12-09T18:35:10.381Z,5.60
2018-12-09T18:37:37.878Z,3.52
2018-12-09T18:40:05.669Z,4.95
2018-12-09T18:42:33.119Z,5.50
2018-12-09T18:45:00.571Z,4.60
2018-12-09T18:47:28.048Z,6.03
2018-12-09T18:49:55.496Z,6.47
2018-12-09T18:52:22.943Z,4.25
2018-12-09T18:54:51.385Z,3.15
2018-12-09T18:57:18.836Z,3.17
2018-12-09T18:59:46.272Z,4.60
2018-12-09T19:02:13.732Z,2.85
2018-12-09T19:04:41.231Z,2.47
2018-12-09T19:07:09.516Z,2.90
2018-12-09T19:09:37.273Z,2.80
2018-12-09T19:12:05.027Z,2.05
2018-12-09T19:14:32.486Z,2.58
2018-12-09T19:16:59.993Z,2.30
2018-12-09T19:19:29.211Z,3.22
2018-12-09T19:21:56.675Z,3.40
2018-12-09T19:24:24.120Z,2.58
2018-12-09T19:26:51.551Z,2.87
2018-12-09T19:29:19.010Z,3.17
2018-12-09T19:31:46.448Z,4.25
2018-12-09T19:34:14.035Z,3.08
2018-12-09T19:36:42.982Z,3.35
2018-12-09T19:39:13.163Z,3.10
2018-12-09T19:41:40.609Z,3.85
2018-12-09T19:44:08.064Z,4.05
2018-12-09T19:46:35.523Z,5.20
2018-12-09T19:49:03.018Z,4.22
2018-12-09T19:51:30.537Z,3.72
2018-12-09T19:53:58.051Z,3.10
2018-12-09T19:56:25.490Z,4.42
2018-12-09T19:58:52.927Z,4.20
2018-12-09T20:01:20.391Z,3.58
2018-12-09T20:03:47.859Z,3.92
2018-12-09T20:06:15.308Z,5.90
2018-12-09T20:08:42.764Z,6.85
2018-12-09T20:11:16.169Z,4.05
2018-12-09T20:13:44.850Z,6.60
2018-12-09T20:16:12.295Z,7.33
2018-12-09T20:18:39.739Z,7.40
2018-12-09T20:21:07.229Z,4.58
2018-12-09T20:23:34.814Z,5.90
2018-12-09T20:26:02.255Z,4.83
2018-12-09T20:28:29.741Z,8.53
2018-12-09T20:30:58.804Z,6.08
2018-12-09T20:33:26.304Z,7.45
2018-12-09T20:35:53.919Z,13.03
2018-12-09T20:38:22.238Z,23.12
2018-12-09T20:40:49.677Z,5.87
2018-12-09T20:43:19.502Z,10.10
2018-12-09T20:45:46.974Z,17.17
2018-12-09T20:48:14.424Z,6.65
2018-12-09T20:50:41.880Z,8.45
2018-12-09T20:53:09.349Z,6.40
2018-12-09T20:55:36.782Z,6.72
2018-12-09T20:58:04.234Z,10.18
2018-12-09T21:00:32.878Z,6.70
2018-12-09T21:03:00.319Z,10.03
2018-12-09T21:05:28.588Z,6.92
2018-12-09T21:07:56.115Z,7.17
2018-12-09T21:10:24.543Z,13.72
2018-12-09T21:12:53.967Z,5.60
2018-12-09T21:15:21.557Z,9.23
2018-12-09T21:17:48.995Z,3.85
2018-12-09T21:20:16.438Z,7.33
2018-12-09T21:22:43.879Z,5.08
2018-12-09T21:25:11.336Z,2.83
2018-12-09T21:27:38.774Z,9.13
2018-12-09T21:30:06.455Z,3.15
2018-12-09T21:32:33.894Z,3.35
2018-12-09T21:35:01.994Z,4.97
2018-12-09T21:37:29.486Z,6.78
2018-12-09T21:39:57.759Z,19.35
2018-12-09T21:42:25.207Z,11.75
2018-12-09T21:44:52.666Z,6.55
2018-12-09T21:47:20.107Z,16.52
2018-12-09T21:49:47.559Z,25.17
2018-12-09T21:52:15.987Z,14.80
2018-12-09T21:54:44.337Z,10.10
2018-12-09T21:57:11.765Z,7.15
2018-12-09T21:59:39.234Z,8.58
2018-12-09T22:02:07.322Z,6.30
2018-12-09T22:04:35.702Z,9.50
2018-12-09T22:07:03.166Z,12.98
2018-12-09T22:09:30.598Z,9.68
2018-12-09T22:11:59.657Z,7.80
2018-12-09T22:14:28.505Z,6.58
2018-12-09T22:16:56.576Z,12.03
2018-12-09T22:19:24.043Z,8.03
2018-12-09T22:21:51.489Z,8.00
2018-12-09T22:24:18.928Z,6.75
2018-12-09T22:26:46.382Z,12.65
2018-12-09T22:29:13.830Z,10.95
2018-12-09T22:31:41.263Z,9.23
2018-12-09T22:34:08.810Z,4.87
2018-12-09T22:36:36.255Z,10.68
2018-12-09T22:39:05.976Z,7.22
2018-12-09T22:41:36.772Z,3.05
2018-12-09T22:46:42.494Z,7.55
2018-12-09T22:49:12.035Z,14.80
2018-12-09T22:51:42.871Z,17.52
2018-12-09T22:54:12.022Z,15.88
2018-12-09T22:56:39.459Z,14.65
2018-12-09T22:59:06.906Z,4.35
2018-12-09T23:01:34.344Z,8.00
2018-12-09T23:04:01.868Z,7.00
2018-12-09T23:06:29.382Z,4.20
2018-12-09T23:08:56.835Z,4.70
2018-12-09T23:11:24.280Z,17.27
2018-12-09T23:14:02.733Z,8.30
2018-12-09T23:16:30.161Z,4.37
2018-12-09T23:18:57.636Z,3.52
2018-12-09T23:21:25.084Z,3.85
2018-12-09T23:23:52.528Z,5.80
2018-12-09T23:26:19.985Z,3.95
2018-12-09T23:28:47.486Z,4.40
2018-12-09T23:31:15.804Z,4.70
2018-12-09T23:33:43.249Z,6.03
2018-12-09T23:36:10.697Z,5.78
2018-12-09T23:38:38.150Z,5.47
2018-12-09T23:41:05.606Z,4.50
2018-12-09T23:43:33.047Z,4.05
2018-12-09T23:46:00.640Z,4.97
2018-12-09T23:48:28.171Z,2.95
2018-12-09T23:50:55.610Z,3.60
2018-12-09T23:53:23.068Z,3.25
2018-12-09T23:55:50.525Z,2.75
2018-12-09T23:58:17.993Z,3.05
